createdAt,value
2018-03-20T00:01:49.332Z,0.00
2018-03-20T00:02:49.260Z,0.00
2018-03-20T00:04:42.531Z,0.00
2018-03-20T00:05:42.429Z,0.00
2018-03-20T00:07:35.667Z,0.00
2018-03-20T00:08:35.598Z,0.00
2018-03-20T00:10:28.868Z,0.00
2018-03-20T00:11:28.767Z,0.00
2018-03-20T00:13:22.006Z,0.00
2018-03-20T00:14:21.935Z,0.00
2018-03-20T00:16:15.203Z,0.00
2018-03-20T00:17:15.104Z,0.00
2018-03-20T00:19:08.343Z,0.00
2018-03-20T00:20:08.280Z,0.00
2018-03-20T00:22:01.541Z,0.00
2018-03-20T00:23:01.440Z,0.00
2018-03-20T00:24:54.681Z,0.00
2018-03-20T00:25:54.609Z,0.00
2018-03-20T00:27:47.882Z,0.00
2018-03-20T00:28:47.781Z,0.00
2018-03-20T00:30:41.018Z,0.00
2018-03-20T00:31:40.947Z,0.00
2018-03-20T00:33:34.217Z,0.00
2018-03-20T00:34:34.118Z,0.00
2018-03-20T00:36:27.355Z,0.00
2018-03-20T00:37:27.289Z,0.00
2018-03-20T00:39:20.553Z,0.00
2018-03-20T00:40:20.452Z,0.00
2018-03-20T00:42:13.691Z,0.00
2018-03-20T00:43:13.622Z,0.00
2018-03-20T00:45:06.893Z,0.00
2018-03-20T00:46:06.790Z,0.00
2018-03-20T00:48:00.029Z,0.00
2018-03-20T00:48:59.962Z,0.00
2018-03-20T00:50:53.229Z,0.00
2018-03-20T00:51:53.135Z,0.00
2018-03-20T00:53:46.367Z,0.00
2018-03-20T00:54:46.298Z,0.00
2018-03-20T00:56:39.571Z,0.00
2018-03-20T00:57:39.466Z,0.00
2018-03-20T00:59:32.712Z,0.00
2018-03-20T01:00:32.640Z,0.00
2018-03-20T01:02:25.914Z,0.00
2018-03-20T01:03:25.805Z,0.00
2018-03-20T01:05:19.050Z,0.00
2018-03-20T01:06:18.975Z,0.00
2018-03-20T01:08:12.248Z,0.00
2018-03-20T01:09:12.142Z,0.00
2018-03-20T01:11:05.385Z,0.00
2018-03-20T01:12:05.310Z,0.00
2018-03-20T01:13:58.583Z,0.00
2018-03-20T01:14:58.482Z,0.00
2018-03-20T01:16:51.721Z,0.00
2018-03-20T01:17:51.658Z,0.00
2018-03-20T01:19:44.924Z,0.00
2018-03-20T01:20:44.823Z,0.00
2018-03-20T01:22:38.064Z,0.00
2018-03-20T01:23:37.992Z,0.00
2018-03-20T01:25:31.260Z,0.00
2018-03-20T01:26:31.160Z,0.00
2018-03-20T01:28:24.401Z,0.00
2018-03-20T01:29:24.330Z,0.00
2018-03-20T01:31:17.600Z,0.00
2018-03-20T01:32:17.499Z,0.00
2018-03-20T01:34:10.760Z,0.00
2018-03-20T01:35:10.669Z,0.00
2018-03-20T01:37:03.939Z,0.00
2018-03-20T01:38:03.844Z,0.00
2018-03-20T01:39:57.076Z,0.00
2018-03-20T01:40:57.009Z,0.00
2018-03-20T01:42:50.275Z,0.00
2018-03-20T01:43:50.173Z,0.00
2018-03-20T01:45:43.413Z,0.00
2018-03-20T01:46:43.349Z,0.00
2018-03-20T01:48:36.613Z,0.00
2018-03-20T01:49:36.510Z,0.00
2018-03-20T01:51:29.752Z,0.00
2018-03-20T01:52:29.679Z,0.00
2018-03-20T01:54:22.950Z,0.00
2018-03-20T01:55:22.847Z,0.00
2018-03-20T01:57:15.592Z,0.00
2018-03-20T01:58:15.564Z,0.00
2018-03-20T02:00:08.791Z,0.00
2018-03-20T02:01:08.684Z,0.00
2018-03-20T02:03:01.925Z,0.00
2018-03-20T02:04:01.852Z,0.00
2018-03-20T02:05:55.129Z,0.00
2018-03-20T02:06:55.020Z,0.00
2018-03-20T02:08:48.260Z,0.00
2018-03-20T02:09:48.188Z,0.00
2018-03-20T02:11:41.463Z,0.00
2018-03-20T02:12:41.357Z,0.00
2018-03-20T02:14:34.600Z,0.00
2018-03-20T02:15:34.528Z,0.00
2018-03-20T02:17:27.797Z,0.00
2018-03-20T02:18:27.696Z,0.00
2018-03-20T02:20:20.936Z,0.00
2018-03-20T02:21:20.864Z,0.00
2018-03-20T02:23:14.134Z,0.00
2018-03-20T02:24:14.033Z,0.00
2018-03-20T02:26:07.273Z,0.00
2018-03-20T02:27:07.202Z,0.00
2018-03-20T02:29:00.473Z,0.00
2018-03-20T02:30:00.372Z,0.00
2018-03-20T02:31:53.613Z,0.00
2018-03-20T02:32:53.542Z,0.00
2018-03-20T02:34:46.813Z,0.00
2018-03-20T02:35:46.714Z,0.00
2018-03-20T02:37:39.951Z,0.00
2018-03-20T02:38:39.881Z,0.00
2018-03-20T02:40:33.152Z,0.00
2018-03-20T02:41:33.053Z,0.00
2018-03-20T02:43:26.292Z,0.00
2018-03-20T02:44:26.221Z,0.00
2018-03-20T02:46:19.489Z,0.00
2018-03-20T02:47:19.389Z,0.00
2018-03-20T02:49:12.630Z,0.00
2018-03-20T02:50:12.559Z,0.00
2018-03-20T02:52:05.830Z,0.00
2018-03-20T02:53:05.726Z,0.00
2018-03-20T02:54:58.966Z,0.00
2018-03-20T02:55:58.896Z,0.00
2018-03-20T02:57:52.169Z,0.00
2018-03-20T02:58:52.068Z,0.00
2018-03-20T03:00:45.308Z,0.00
2018-03-20T03:01:45.238Z,0.00
2018-03-20T03:03:38.516Z,0.00
2018-03-20T03:04:38.408Z,0.00
2018-03-20T03:06:31.651Z,0.00
2018-03-20T03:07:31.583Z,0.00
2018-03-20T03:09:24.850Z,0.00
2018-03-20T03:10:24.752Z,0.00
2018-03-20T03:12:18.040Z,0.00
2018-03-20T03:13:17.923Z,0.00
2018-03-20T03:15:11.193Z,0.00
2018-03-20T03:16:11.095Z,0.00
2018-03-20T03:18:04.336Z,0.00
2018-03-20T03:19:04.267Z,0.00
2018-03-20T03:20:57.539Z,0.00
2018-03-20T03:21:57.437Z,0.00
2018-03-20T03:23:50.680Z,0.00
2018-03-20T03:24:50.609Z,0.00
2018-03-20T03:26:43.882Z,0.00
2018-03-20T03:27:43.783Z,0.00
2018-03-20T03:29:37.025Z,0.00
2018-03-20T03:30:36.955Z,0.00
2018-03-20T03:32:30.224Z,0.00
2018-03-20T03:33:30.123Z,0.00
2018-03-20T03:35:23.365Z,0.00
2018-03-20T03:36:23.294Z,0.00
2018-03-20T03:38:16.566Z,0.00
2018-03-20T03:39:16.466Z,0.00
2018-03-20T03:41:09.712Z,0.00
2018-03-20T03:42:09.638Z,0.00
2018-03-20T03:44:02.913Z,0.00
2018-03-20T03:45:02.812Z,0.00
2018-03-20T03:46:56.054Z,0.00
2018-03-20T03:47:55.986Z,0.00
2018-03-20T03:49:49.256Z,0.00
2018-03-20T03:50:49.157Z,0.00
2018-03-20T03:52:42.400Z,0.00
2018-03-20T03:53:42.328Z,0.00
2018-03-20T03:55:35.601Z,0.00
2018-03-20T03:56:35.501Z,0.00
2018-03-20T03:58:28.745Z,0.00
2018-03-20T03:59:28.677Z,0.00
2018-03-20T04:01:21.964Z,0.00
2018-03-20T04:02:21.847Z,0.00
2018-03-20T04:04:15.089Z,0.00
2018-03-20T04:05:15.020Z,0.00
2018-03-20T04:07:08.291Z,0.00
2018-03-20T04:08:08.194Z,0.00
2018-03-20T04:10:01.437Z,0.00
2018-03-20T04:11:01.366Z,0.00
2018-03-20T04:12:54.636Z,0.00
2018-03-20T04:13:54.592Z,0.00
2018-03-20T04:15:47.784Z,0.00
2018-03-20T04:16:47.712Z,0.00
2018-03-20T04:18:40.996Z,0.00
2018-03-20T04:19:40.895Z,0.00
2018-03-20T04:21:34.139Z,0.00
2018-03-20T04:22:34.070Z,0.00
2018-03-20T04:24:27.344Z,0.00
2018-03-20T04:25:27.240Z,0.00
2018-03-20T04:27:20.491Z,0.00
2018-03-20T04:28:20.415Z,0.00
2018-03-20T04:30:13.689Z,0.00
2018-03-20T04:31:13.587Z,0.00
2018-03-20T04:33:06.829Z,0.00
2018-03-20T04:34:06.759Z,0.00
2018-03-20T04:36:00.031Z,0.00
2018-03-20T04:36:59.932Z,0.00
2018-03-20T04:38:53.174Z,0.00
2018-03-20T04:39:53.104Z,0.00
2018-03-20T04:41:46.374Z,0.00
2018-03-20T04:42:46.283Z,0.00
2018-03-20T04:44:39.521Z,0.00
2018-03-20T04:45:39.448Z,0.00
2018-03-20T04:47:32.722Z,0.00
2018-03-20T04:48:32.624Z,0.00
2018-03-20T04:50:25.861Z,0.00
2018-03-20T04:51:25.791Z,0.00
2018-03-20T04:53:19.062Z,0.00
2018-03-20T04:54:18.961Z,0.00
2018-03-20T04:56:12.204Z,4.00
2018-03-20T04:57:12.134Z,4.00
2018-03-20T04:59:05.413Z,4.00
2018-03-20T05:00:05.304Z,4.00
2018-03-20T05:01:58.544Z,8.00
2018-03-20T05:02:58.476Z,12.00
2018-03-20T05:04:51.747Z,12.00
2018-03-20T05:05:51.646Z,16.00
2018-03-20T05:07:44.940Z,20.00
2018-03-20T05:08:44.827Z,28.00
2018-03-20T05:10:38.089Z,40.00
2018-03-20T05:11:37.991Z,48.00
2018-03-20T05:13:31.366Z,64.00
2018-03-20T05:14:31.162Z,76.00
2018-03-20T05:16:24.432Z,100.00
2018-03-20T05:17:24.329Z,116.00
2018-03-20T05:19:17.571Z,148.00
2018-03-20T05:20:17.499Z,164.00
2018-03-20T05:22:10.773Z,208.00
2018-03-20T05:23:10.670Z,232.00
2018-03-20T05:25:03.913Z,284.00
2018-03-20T05:26:03.840Z,316.00
2018-03-20T05:27:57.110Z,388.00
2018-03-20T05:28:57.026Z,428.00
2018-03-20T05:30:50.249Z,516.00
2018-03-20T05:31:50.177Z,568.00
2018-03-20T05:33:43.449Z,664.00
2018-03-20T05:34:43.347Z,724.00
2018-03-20T05:36:36.590Z,832.00
2018-03-20T05:37:36.519Z,892.00
2018-03-20T05:39:29.790Z,1020.00
2018-03-20T05:40:29.688Z,1108.00
2018-03-20T05:42:22.931Z,1244.00
2018-03-20T05:43:22.858Z,1300.00
2018-03-20T05:45:16.130Z,1380.00
2018-03-20T05:46:16.028Z,1424.00
2018-03-20T05:48:09.269Z,1536.00
2018-03-20T05:49:09.196Z,1624.00
2018-03-20T05:51:02.468Z,1820.00
2018-03-20T05:52:02.365Z,1900.00
2018-03-20T05:53:55.608Z,1936.00
2018-03-20T05:54:55.534Z,1960.00
2018-03-20T05:56:48.808Z,2048.00
2018-03-20T05:57:48.704Z,2132.00
2018-03-20T05:59:41.945Z,2372.00
2018-03-20T06:00:41.872Z,2480.00
2018-03-20T06:02:35.140Z,2632.00
2018-03-20T06:03:35.042Z,2748.00
2018-03-20T06:05:28.281Z,2940.00
2018-03-20T06:06:28.210Z,3104.00
2018-03-20T06:08:21.490Z,3616.00
2018-03-20T06:09:21.379Z,3940.00
2018-03-20T06:11:14.656Z,4556.00
2018-03-20T06:12:14.550Z,4792.00
2018-03-20T06:14:07.819Z,5168.00
2018-03-20T06:15:07.717Z,5360.00
2018-03-20T06:17:00.960Z,5644.00
2018-03-20T06:18:00.889Z,5728.00
2018-03-20T06:19:54.159Z,5776.00
2018-03-20T06:20:54.062Z,5788.00
2018-03-20T06:22:47.300Z,5988.00
2018-03-20T06:23:47.228Z,6060.00
2018-03-20T06:25:40.506Z,5920.00
2018-03-20T06:26:40.400Z,5948.00
2018-03-20T06:28:33.642Z,6252.00
2018-03-20T06:29:33.571Z,6632.00
2018-03-20T06:31:26.843Z,7444.00
2018-03-20T06:32:26.741Z,7572.00
2018-03-20T06:34:19.983Z,8780.00
2018-03-20T06:35:19.912Z,9508.00
2018-03-20T06:37:13.186Z,9712.00
2018-03-20T06:38:13.084Z,9776.00
2018-03-20T06:40:06.328Z,9736.00
2018-03-20T06:41:06.257Z,10720.00
2018-03-20T06:42:59.530Z,16288.00
2018-03-20T06:43:59.431Z,14912.00
2018-03-20T06:45:52.675Z,12828.00
2018-03-20T06:46:52.604Z,15488.00
2018-03-20T06:48:45.877Z,17344.00
2018-03-20T06:49:45.777Z,18912.00
2018-03-20T06:51:39.024Z,20608.00
2018-03-20T06:52:38.954Z,19136.00
2018-03-20T06:54:31.730Z,23392.00
2018-03-20T06:55:31.631Z,24160.00
2018-03-20T06:57:24.879Z,23040.00
2018-03-20T06:58:24.811Z,16672.00
2018-03-20T07:00:18.089Z,11536.00
2018-03-20T07:01:17.992Z,13492.00
2018-03-20T07:03:10.745Z,23808.00
2018-03-20T07:04:10.678Z,24256.00
2018-03-20T07:06:03.966Z,23680.00
2018-03-20T07:07:03.871Z,25664.00
2018-03-20T07:08:57.121Z,26784.00
2018-03-20T07:09:57.056Z,25504.00
2018-03-20T07:11:50.364Z,29120.00
2018-03-20T07:12:50.243Z,31456.00
2018-03-20T07:14:43.495Z,31584.00
2018-03-20T07:15:43.431Z,30624.00
2018-03-20T07:17:36.711Z,32192.00
2018-03-20T07:18:36.616Z,33472.00
2018-03-20T07:20:29.873Z,36000.00
2018-03-20T07:21:29.807Z,35616.00
2018-03-20T07:23:23.092Z,33536.00
2018-03-20T07:24:22.998Z,35360.00
2018-03-20T07:26:16.267Z,38816.00
2018-03-20T07:27:16.192Z,38016.00
2018-03-20T07:29:09.484Z,36480.00
2018-03-20T07:30:09.386Z,38400.00
2018-03-20T07:32:02.643Z,42272.00
2018-03-20T07:33:02.582Z,42080.00
2018-03-20T07:34:55.378Z,40576.00
2018-03-20T07:35:55.284Z,41888.00
2018-03-20T07:37:48.547Z,45504.00
2018-03-20T07:38:48.484Z,43808.00
2018-03-20T07:40:41.790Z,41856.00
2018-03-20T07:41:41.680Z,46464.00
2018-03-20T07:43:34.941Z,48096.00
2018-03-20T07:44:34.883Z,45216.00
2018-03-20T07:46:28.177Z,43424.00
2018-03-20T07:47:28.082Z,45024.00
2018-03-20T07:49:21.345Z,48128.00
2018-03-20T07:50:21.286Z,47648.00
2018-03-20T07:52:14.580Z,45248.00
2018-03-20T07:53:14.490Z,47776.00
2018-03-20T07:55:07.756Z,52608.00
2018-03-20T07:56:07.695Z,51136.00
2018-03-20T07:58:00.994Z,52512.00
2018-03-20T07:59:00.904Z,51456.00
2018-03-20T08:00:54.171Z,48672.00
2018-03-20T08:01:54.115Z,53024.00
2018-03-20T08:03:47.409Z,58912.00
2018-03-20T08:04:47.323Z,57184.00
2018-03-20T08:06:40.589Z,52352.00
2018-03-20T08:07:40.532Z,51136.00
2018-03-20T08:09:33.829Z,47904.00
2018-03-20T08:10:33.748Z,53344.00
2018-03-20T08:12:27.014Z,45248.00
2018-03-20T08:13:26.956Z,48512.00
2018-03-20T08:15:19.776Z,67168.00
2018-03-20T08:16:19.673Z,66592.00
2018-03-20T08:18:12.450Z,60928.00
2018-03-20T08:19:12.392Z,52864.00
2018-03-20T08:21:05.201Z,64608.00
2018-03-20T08:22:05.113Z,62016.00
2018-03-20T08:23:57.885Z,58720.00
2018-03-20T08:24:57.829Z,63264.00
2018-03-20T08:26:51.175Z,71072.00
2018-03-20T08:27:51.047Z,67424.00
2018-03-20T08:29:43.823Z,63008.00
2018-03-20T08:30:43.775Z,57216.00
2018-03-20T08:32:36.575Z,61344.00
2018-03-20T08:33:36.489Z,73536.00
2018-03-20T08:35:29.265Z,76704.00
2018-03-20T08:36:29.211Z,67904.00
2018-03-20T08:38:22.531Z,49472.00
2018-03-20T08:39:22.431Z,52320.00
2018-03-20T08:41:15.707Z,69120.00
2018-03-20T08:42:15.649Z,59808.00
2018-03-20T08:44:08.459Z,69952.00
2018-03-20T08:45:08.383Z,74624.00
2018-03-20T08:47:01.152Z,74912.00
2018-03-20T08:48:01.099Z,67200.00
2018-03-20T08:49:53.956Z,63808.00
2018-03-20T08:50:53.822Z,59648.00
2018-03-20T08:52:46.602Z,69344.00
2018-03-20T08:53:46.550Z,70688.00
2018-03-20T08:55:39.376Z,66560.00
2018-03-20T08:56:39.279Z,63968.00
2018-03-20T08:58:32.063Z,65952.00
2018-03-20T08:59:32.008Z,65344.00
2018-03-20T09:01:25.318Z,61920.00
2018-03-20T09:02:25.235Z,68608.00
2018-03-20T09:04:18.018Z,75968.00
2018-03-20T09:05:17.964Z,80160.00
2018-03-20T09:07:10.784Z,85472.00
2018-03-20T09:08:10.697Z,73664.00
2018-03-20T09:10:03.481Z,58272.00
2018-03-20T09:11:03.431Z,72608.00
2018-03-20T09:12:56.751Z,83744.00
2018-03-20T09:13:56.668Z,91680.00
2018-03-20T09:15:49.455Z,87680.00
2018-03-20T09:16:49.405Z,75296.00
2018-03-20T09:18:42.240Z,66048.00
2018-03-20T09:19:42.141Z,66528.00
2018-03-20T09:21:35.422Z,92128.00
2018-03-20T09:22:35.371Z,82528.00
2018-03-20T09:24:28.201Z,62912.00
2018-03-20T09:25:28.107Z,62112.00
2018-03-20T09:27:20.892Z,69088.00
2018-03-20T09:28:20.843Z,72608.00
2018-03-20T09:30:13.658Z,80064.00
2018-03-20T09:31:13.577Z,87904.00
2018-03-20T09:33:06.367Z,85600.00
2018-03-20T09:34:06.316Z,78784.00
2018-03-20T09:35:59.133Z,68224.00
2018-03-20T09:36:59.051Z,71904.00
2018-03-20T09:38:51.836Z,83552.00
2018-03-20T09:39:51.785Z,88928.00
2018-03-20T09:41:44.618Z,91936.00
2018-03-20T09:42:44.520Z,94752.00
2018-03-20T09:44:37.306Z,90912.00
2018-03-20T09:45:37.255Z,91264.00
2018-03-20T09:47:30.073Z,90688.00
2018-03-20T09:48:29.992Z,89792.00
2018-03-20T09:50:22.775Z,84192.00
2018-03-20T09:51:22.724Z,83136.00
2018-03-20T09:53:15.557Z,85280.00
2018-03-20T09:54:15.461Z,86496.00
2018-03-20T09:56:08.249Z,88288.00
2018-03-20T09:57:08.197Z,89984.00
2018-03-20T09:59:01.018Z,93120.00
2018-03-20T10:00:00.938Z,92608.00
2018-03-20T10:01:53.728Z,87520.00
2018-03-20T10:02:53.679Z,86208.00
2018-03-20T10:04:46.521Z,87392.00
2018-03-20T10:05:46.420Z,88064.00
2018-03-20T10:07:39.209Z,90656.00
2018-03-20T10:08:39.162Z,90944.00
2018-03-20T10:10:31.989Z,86784.00
2018-03-20T10:11:31.901Z,85952.00
2018-03-20T10:13:24.694Z,87648.00
2018-03-20T10:14:24.645Z,88736.00
2018-03-20T10:16:17.466Z,94816.00
2018-03-20T10:17:17.385Z,94304.00
2018-03-20T10:19:10.178Z,92480.00
2018-03-20T10:20:10.204Z,88192.00
2018-03-20T10:22:03.461Z,84256.00
2018-03-20T10:23:03.367Z,87328.00
2018-03-20T10:24:56.653Z,96064.00
2018-03-20T10:25:56.603Z,96288.00
2018-03-20T10:27:49.423Z,97984.00
2018-03-20T10:28:49.341Z,99776.00
2018-03-20T10:30:42.135Z,102592.00
2018-03-20T10:31:42.090Z,101920.00
2018-03-20T10:33:34.907Z,98080.00
2018-03-20T10:34:34.826Z,95072.00
2018-03-20T10:36:27.618Z,95104.00
2018-03-20T10:37:27.572Z,95904.00
2018-03-20T10:39:20.884Z,94080.00
2018-03-20T10:40:20.807Z,94336.00
2018-03-20T10:42:13.596Z,93152.00
2018-03-20T10:43:13.547Z,92576.00
2018-03-20T10:45:06.368Z,94944.00
2018-03-20T10:46:06.291Z,95456.00
2018-03-20T10:47:59.081Z,98464.00
2018-03-20T10:48:59.082Z,96544.00
2018-03-20T10:50:51.855Z,94784.00
2018-03-20T10:51:51.773Z,92736.00
2018-03-20T10:53:44.563Z,91776.00
2018-03-20T10:54:44.516Z,91552.00
2018-03-20T10:56:37.372Z,91552.00
2018-03-20T10:57:37.254Z,91872.00
2018-03-20T10:59:30.041Z,95168.00
2018-03-20T11:00:29.991Z,95200.00
2018-03-20T11:02:22.812Z,86752.00
2018-03-20T11:03:22.730Z,58912.00
2018-03-20T11:05:15.519Z,96544.00
2018-03-20T11:06:15.466Z,100320.00
2018-03-20T11:08:08.298Z,103168.00
2018-03-20T11:09:08.201Z,106400.00
2018-03-20T11:11:00.990Z,116736.00
2018-03-20T11:12:00.937Z,68096.00
2018-03-20T11:13:54.249Z,69824.00
2018-03-20T11:14:54.171Z,50304.00
2018-03-20T11:16:46.957Z,46720.00
2018-03-20T11:17:46.910Z,81152.00
2018-03-20T11:19:39.726Z,60384.00
2018-03-20T11:20:39.639Z,46176.00
2018-03-20T11:22:32.423Z,39488.00
2018-03-20T11:23:32.369Z,42624.00
2018-03-20T11:25:25.188Z,43264.00
2018-03-20T11:26:25.101Z,40640.00
2018-03-20T11:28:17.879Z,37216.00
2018-03-20T11:29:17.827Z,36288.00
2018-03-20T11:31:11.129Z,35936.00
2018-03-20T11:32:11.046Z,34912.00
2018-03-20T11:34:04.318Z,33568.00
2018-03-20T11:35:04.260Z,33120.00
2018-03-20T11:36:57.083Z,34016.00
2018-03-20T11:37:56.980Z,34912.00
2018-03-20T11:39:49.757Z,38528.00
2018-03-20T11:40:49.697Z,42240.00
2018-03-20T11:42:42.998Z,46048.00
2018-03-20T11:43:42.908Z,38912.00
2018-03-20T11:45:36.182Z,32864.00
2018-03-20T11:46:36.121Z,31808.00
2018-03-20T11:48:29.417Z,30592.00
2018-03-20T11:49:29.357Z,30176.00
2018-03-20T11:51:22.595Z,28768.00
2018-03-20T11:52:22.538Z,27552.00
2018-03-20T11:54:15.832Z,25856.00
2018-03-20T11:55:15.746Z,25088.00
2018-03-20T11:57:09.009Z,24320.00
2018-03-20T11:58:08.951Z,24608.00
2018-03-20T12:00:02.244Z,26272.00
2018-03-20T12:01:02.158Z,27072.00
2018-03-20T12:02:55.421Z,28000.00
2018-03-20T12:03:55.361Z,28032.00
2018-03-20T12:05:48.659Z,26432.00
2018-03-20T12:06:48.570Z,25504.00
2018-03-20T12:08:41.835Z,24448.00
2018-03-20T12:09:41.774Z,24096.00
2018-03-20T12:11:34.614Z,23360.00
2018-03-20T12:12:34.484Z,22656.00
2018-03-20T12:14:27.250Z,20928.00
2018-03-20T12:15:27.196Z,20576.00
2018-03-20T12:17:20.500Z,20896.00
2018-03-20T12:18:20.393Z,21024.00
2018-03-20T12:20:13.654Z,20352.00
2018-03-20T12:21:13.596Z,20032.00
2018-03-20T12:23:06.890Z,19680.00
2018-03-20T12:24:06.796Z,19808.00
2018-03-20T12:26:00.058Z,19968.00
2018-03-20T12:27:00.001Z,20096.00
2018-03-20T12:28:53.287Z,19712.00
2018-03-20T12:29:53.196Z,19008.00
2018-03-20T12:31:46.456Z,16508.00
2018-03-20T12:32:46.395Z,14840.00
2018-03-20T12:34:39.684Z,12276.00
2018-03-20T12:35:39.595Z,11640.00
2018-03-20T12:37:32.856Z,10804.00
2018-03-20T12:38:32.792Z,10192.00
2018-03-20T12:40:26.103Z,9480.00
2018-03-20T12:41:25.989Z,9880.00
2018-03-20T12:43:19.248Z,12796.00
2018-03-20T12:44:19.188Z,13244.00
2018-03-20T12:46:12.473Z,13068.00
2018-03-20T12:47:12.378Z,13864.00
2018-03-20T12:49:05.642Z,16888.00
2018-03-20T12:50:05.572Z,16628.00
2018-03-20T12:51:58.858Z,18432.00
2018-03-20T12:52:58.765Z,19712.00
2018-03-20T12:54:51.525Z,19552.00
2018-03-20T12:55:51.459Z,19520.00
2018-03-20T12:57:44.771Z,19072.00
2018-03-20T12:58:44.657Z,19392.00
2018-03-20T13:00:37.909Z,23488.00
2018-03-20T13:01:37.845Z,24512.00
2018-03-20T13:03:31.128Z,29184.00
2018-03-20T13:04:31.096Z,33952.00
2018-03-20T13:06:24.292Z,44512.00
2018-03-20T13:07:24.229Z,48256.00
2018-03-20T13:09:17.520Z,52704.00
2018-03-20T13:10:17.424Z,49248.00
2018-03-20T13:12:10.684Z,44640.00
2018-03-20T13:13:10.627Z,41088.00
2018-03-20T13:15:03.912Z,36608.00
2018-03-20T13:16:03.818Z,34464.00
2018-03-20T13:17:57.077Z,29152.00
2018-03-20T13:18:57.016Z,27616.00
2018-03-20T13:20:50.323Z,26784.00
2018-03-20T13:21:50.216Z,26944.00
2018-03-20T13:23:43.474Z,24800.00
2018-03-20T13:24:43.416Z,23872.00
2018-03-20T13:26:36.710Z,21664.00
2018-03-20T13:27:36.613Z,21536.00
2018-03-20T13:29:29.876Z,20960.00
2018-03-20T13:30:29.814Z,19904.00
2018-03-20T13:32:23.103Z,17888.00
2018-03-20T13:33:23.012Z,18208.00
2018-03-20T13:35:16.273Z,16516.00
2018-03-20T13:36:16.210Z,15152.00
2018-03-20T13:38:09.500Z,14336.00
2018-03-20T13:39:09.408Z,14068.00
2018-03-20T13:41:02.171Z,12104.00
2018-03-20T13:42:02.106Z,11692.00
2018-03-20T13:43:54.902Z,10968.00
2018-03-20T13:44:54.803Z,10772.00
2018-03-20T13:46:48.063Z,10272.00
2018-03-20T13:47:48.001Z,9468.00
2018-03-20T13:49:41.283Z,9396.00
2018-03-20T13:50:41.189Z,9788.00
2018-03-20T13:52:34.442Z,10144.00
2018-03-20T13:53:34.378Z,9800.00
2018-03-20T13:55:27.669Z,9632.00
2018-03-20T13:56:27.581Z,9564.00
2018-03-20T13:58:20.830Z,8880.00
2018-03-20T13:59:20.766Z,8600.00
2018-03-20T14:01:14.049Z,8504.00
2018-03-20T14:02:13.954Z,8720.00
2018-03-20T14:04:07.209Z,9032.00
2018-03-20T14:05:07.144Z,9420.00
2018-03-20T14:07:00.445Z,10352.00
2018-03-20T14:08:00.333Z,10876.00
2018-03-20T14:09:53.587Z,11288.00
2018-03-20T14:10:53.522Z,11608.00
2018-03-20T14:12:46.804Z,12392.00
2018-03-20T14:13:46.708Z,12580.00
2018-03-20T14:15:39.962Z,12376.00
2018-03-20T14:16:39.896Z,11984.00
2018-03-20T14:18:33.179Z,11580.00
2018-03-20T14:19:33.082Z,11672.00
2018-03-20T14:21:26.335Z,11088.00
2018-03-20T14:22:26.271Z,10984.00
2018-03-20T14:24:19.553Z,10940.00
2018-03-20T14:25:19.460Z,10568.00
2018-03-20T14:27:12.708Z,9608.00
2018-03-20T14:28:12.643Z,9328.00
2018-03-20T14:30:05.936Z,8804.00
2018-03-20T14:31:05.827Z,8404.00
2018-03-20T14:32:59.081Z,7868.00
2018-03-20T14:33:59.021Z,7460.00
2018-03-20T14:35:52.314Z,7468.00
2018-03-20T14:36:52.210Z,7476.00
2018-03-20T14:38:44.960Z,7008.00
2018-03-20T14:39:44.893Z,6856.00
2018-03-20T14:41:38.177Z,7044.00
2018-03-20T14:42:38.081Z,7312.00
2018-03-20T14:44:31.335Z,8760.00
2018-03-20T14:45:31.278Z,9876.00
2018-03-20T14:47:24.549Z,11508.00
2018-03-20T14:48:24.452Z,11704.00
2018-03-20T14:50:17.702Z,10300.00
2018-03-20T14:51:17.638Z,9880.00
2018-03-20T14:53:10.918Z,10588.00
2018-03-20T14:54:10.822Z,10288.00
2018-03-20T14:56:04.076Z,8056.00
2018-03-20T14:57:04.012Z,6780.00
2018-03-20T14:58:57.310Z,5848.00
2018-03-20T14:59:57.199Z,5844.00
2018-03-20T15:01:50.453Z,5192.00
2018-03-20T15:02:50.384Z,5060.00
2018-03-20T15:04:43.666Z,5504.00
2018-03-20T15:05:43.570Z,5628.00
2018-03-20T15:07:36.820Z,5040.00
2018-03-20T15:08:36.756Z,4584.00
2018-03-20T15:10:30.037Z,4228.00
2018-03-20T15:11:29.944Z,3828.00
2018-03-20T15:13:23.197Z,3436.00
2018-03-20T15:14:23.128Z,3576.00
2018-03-20T15:16:16.409Z,3872.00
2018-03-20T15:17:16.315Z,3768.00
2018-03-20T15:19:09.565Z,3732.00
2018-03-20T15:20:09.500Z,4232.00
2018-03-20T15:22:02.785Z,4596.00
2018-03-20T15:23:02.686Z,4252.00
2018-03-20T15:24:55.936Z,3640.00
2018-03-20T15:25:55.872Z,3428.00
2018-03-20T15:27:49.151Z,3184.00
2018-03-20T15:28:49.061Z,3192.00
2018-03-20T15:30:42.308Z,3204.00
2018-03-20T15:31:42.245Z,3128.00
2018-03-20T15:33:35.550Z,3364.00
2018-03-20T15:34:35.427Z,3392.00
2018-03-20T15:36:28.726Z,3696.00
2018-03-20T15:37:28.608Z,3924.00
2018-03-20T15:39:21.894Z,3732.00
2018-03-20T15:40:21.793Z,3812.00
2018-03-20T15:42:15.043Z,3860.00
2018-03-20T15:43:14.976Z,3932.00
2018-03-20T15:45:08.266Z,3480.00
2018-03-20T15:46:08.162Z,3280.00
2018-03-20T15:48:01.414Z,3132.00
2018-03-20T15:49:01.352Z,2968.00
2018-03-20T15:50:54.646Z,2736.00
2018-03-20T15:51:54.530Z,2604.00
2018-03-20T15:53:47.285Z,2436.00
2018-03-20T15:54:47.216Z,2436.00
2018-03-20T15:56:40.508Z,2384.00
2018-03-20T15:57:40.409Z,2328.00
2018-03-20T15:59:33.661Z,2160.00
2018-03-20T16:00:33.593Z,2116.00
2018-03-20T16:02:26.889Z,1992.00
2018-03-20T16:03:26.775Z,1960.00
2018-03-20T16:05:20.023Z,1920.00
2018-03-20T16:06:19.970Z,1844.00
2018-03-20T16:08:13.236Z,1716.00
2018-03-20T16:09:13.179Z,1648.00
2018-03-20T16:11:06.389Z,1484.00
2018-03-20T16:12:06.363Z,1400.00
2018-03-20T16:13:59.600Z,1240.00
2018-03-20T16:14:59.504Z,1152.00
2018-03-20T16:16:52.754Z,1216.00
2018-03-20T16:17:52.687Z,1308.00
2018-03-20T16:19:45.968Z,1384.00
2018-03-20T16:20:45.870Z,1404.00
2018-03-20T16:22:39.119Z,1396.00
2018-03-20T16:23:39.051Z,1404.00
2018-03-20T16:25:32.333Z,1516.00
2018-03-20T16:26:32.235Z,1384.00
2018-03-20T16:28:25.485Z,1056.00
2018-03-20T16:29:25.427Z,972.00
2018-03-20T16:31:18.197Z,988.00
2018-03-20T16:32:18.100Z,1020.00
2018-03-20T16:34:11.360Z,912.00
2018-03-20T16:35:11.282Z,844.00
2018-03-20T16:37:04.563Z,736.00
2018-03-20T16:38:04.464Z,676.00
2018-03-20T16:39:57.845Z,588.00
2018-03-20T16:40:57.645Z,612.00
2018-03-20T16:42:50.959Z,668.00
2018-03-20T16:43:50.825Z,604.00
2018-03-20T16:45:44.073Z,548.00
2018-03-20T16:46:44.006Z,532.00
2018-03-20T16:48:37.289Z,520.00
2018-03-20T16:49:37.188Z,524.00
2018-03-20T16:51:30.435Z,488.00
2018-03-20T16:52:30.370Z,464.00
2018-03-20T16:54:23.669Z,456.00
2018-03-20T16:55:23.550Z,440.00
2018-03-20T16:57:16.796Z,408.00
2018-03-20T16:58:16.728Z,372.00
2018-03-20T17:00:10.005Z,368.00
2018-03-20T17:01:09.909Z,364.00
2018-03-20T17:03:03.156Z,380.00
2018-03-20T17:04:03.093Z,392.00
2018-03-20T17:05:56.374Z,412.00
2018-03-20T17:06:56.271Z,368.00
2018-03-20T17:08:49.517Z,248.00
2018-03-20T17:09:49.451Z,224.00
2018-03-20T17:11:42.233Z,176.00
2018-03-20T17:12:42.137Z,164.00
2018-03-20T17:14:35.383Z,200.00
2018-03-20T17:15:35.317Z,216.00
2018-03-20T17:17:28.615Z,192.00
2018-03-20T17:18:28.552Z,168.00
2018-03-20T17:20:21.750Z,168.00
2018-03-20T17:21:21.682Z,156.00
2018-03-20T17:23:14.970Z,136.00
2018-03-20T17:24:14.862Z,128.00
2018-03-20T17:26:08.111Z,104.00
2018-03-20T17:27:08.044Z,100.00
2018-03-20T17:29:01.319Z,100.00
2018-03-20T17:30:01.223Z,96.00
2018-03-20T17:31:54.475Z,76.00
2018-03-20T17:32:54.404Z,64.00
2018-03-20T17:34:47.685Z,60.00
2018-03-20T17:35:47.586Z,56.00
2018-03-20T17:37:40.835Z,44.00
2018-03-20T17:38:40.771Z,40.00
2018-03-20T17:40:34.046Z,28.00
2018-03-20T17:41:33.948Z,24.00
2018-03-20T17:43:27.204Z,20.00
2018-03-20T17:44:27.136Z,20.00
2018-03-20T17:46:20.456Z,12.00